sensor_id;sensor_type;location;lat;lon;timestamp;P1;durP1;ratioP1;P2;durP2;ratioP2
25503;SDS011;13410;52.114;5.718;2024-02-21T00:00:44;17.23;;;8.27;;
25503;SDS011;13410;52.114;5.718;2024-02-21T00:03:10;15.73;;;7.90;;
25503;SDS011;13410;52.114;5.718;2024-02-21T00:05:36;16.13;;;7.93;;
25503;SDS011;13410;52.114;5.718;2024-02-21T00:08:02;13.57;;;8.05;;
25503;SDS011;13410;52.114;5.718;2024-02-21T00:10:28;16.83;;;7.63;;
25503;SDS011;13410;52.114;5.718;2024-02-21T00:12:54;17.70;;;7.93;;
25503;SDS011;13410;52.114;5.718;2024-02-21T00:15:24;17.42;;;7.78;;
25503;SDS011;13410;52.114;5.718;2024-02-21T00:17:49;14.55;;;7.57;;
25503;SDS011;13410;52.114;5.718;2024-02-21T00:20:15;17.40;;;7.20;;
25503;SDS011;13410;52.114;5.718;2024-02-21T00:22:41;14.10;;;7.45;;
25503;SDS011;13410;52.114;5.718;2024-02-21T00:25:06;18.23;;;7.65;;
25503;SDS011;13410;52.114;5.718;2024-02-21T00:27:33;13.60;;;7.80;;
25503;SDS011;13410;52.114;5.718;2024-02-21T00:29:58;13.32;;;6.78;;
25503;SDS011;13410;52.114;5.718;2024-02-21T00:32:24;12.93;;;7.20;;
25503;SDS011;13410;52.114;5.718;2024-02-21T00:34:49;12.82;;;7.47;;
25503;SDS011;13410;52.114;5.718;2024-02-21T00:37:15;19.58;;;7.50;;
25503;SDS011;13410;52.114;5.718;2024-02-21T00:39:41;13.32;;;7.30;;
25503;SDS011;13410;52.114;5.718;2024-02-21T00:42:07;16.02;;;7.22;;
25503;SDS011;13410;52.114;5.718;2024-02-21T00:44:33;14.23;;;7.38;;
25503;SDS011;13410;52.114;5.718;2024-02-21T00:46:58;13.73;;;7.70;;
25503;SDS011;13410;52.114;5.718;2024-02-21T00:49:24;13.55;;;7.28;;
25503;SDS011;13410;52.114;5.718;2024-02-21T00:51:49;13.27;;;7.15;;
25503;SDS011;13410;52.114;5.718;2024-02-21T00:54:15;13.00;;;7.00;;
25503;SDS011;13410;52.114;5.718;2024-02-21T00:56:41;15.55;;;7.20;;
25503;SDS011;13410;52.114;5.718;2024-02-21T00:59:07;13.30;;;7.18;;
25503;SDS011;13410;52.114;5.718;2024-02-21T01:01:33;13.27;;;7.35;;
25503;SDS011;13410;52.114;5.718;2024-02-21T01:03:59;15.77;;;7.05;;
25503;SDS011;13410;52.114;5.718;2024-02-21T01:06:25;15.43;;;7.07;;
25503;SDS011;13410;52.114;5.718;2024-02-21T01:08:50;19.05;;;8.10;;
25503;SDS011;13410;52.114;5.718;2024-02-21T01:11:16;16.05;;;7.80;;
25503;SDS011;13410;52.114;5.718;2024-02-21T01:13:42;15.07;;;7.38;;
25503;SDS011;13410;52.114;5.718;2024-02-21T01:16:08;16.27;;;7.43;;
25503;SDS011;13410;52.114;5.718;2024-02-21T01:18:34;13.30;;;6.93;;
25503;SDS011;13410;52.114;5.718;2024-02-21T01:21:01;16.55;;;7.22;;
25503;SDS011;13410;52.114;5.718;2024-02-21T01:23:27;15.55;;;7.07;;
25503;SDS011;13410;52.114;5.718;2024-02-21T01:25:53;16.45;;;7.22;;
25503;SDS011;13410;52.114;5.718;2024-02-21T01:28:20;12.88;;;7.07;;
25503;SDS011;13410;52.114;5.718;2024-02-21T01:30:45;16.02;;;6.90;;
25503;SDS011;13410;52.114;5.718;2024-02-21T01:33:11;13.82;;;6.68;;
25503;SDS011;13410;52.114;5.718;2024-02-21T01:35:37;16.35;;;7.53;;
25503;SDS011;13410;52.114;5.718;2024-02-21T01:38:02;14.35;;;7.22;;
25503;SDS011;13410;52.114;5.718;2024-02-21T01:40:29;15.32;;;7.45;;
25503;SDS011;13410;52.114;5.718;2024-02-21T01:42:55;11.68;;;6.68;;
25503;SDS011;13410;52.114;5.718;2024-02-21T01:45:21;14.40;;;7.13;;
25503;SDS011;13410;52.114;5.718;2024-02-21T01:47:47;14.30;;;7.55;;
25503;SDS011;13410;52.114;5.718;2024-02-21T01:50:14;24.02;;;8.63;;
25503;SDS011;13410;52.114;5.718;2024-02-21T01:52:41;14.38;;;7.80;;
25503;SDS011;13410;52.114;5.718;2024-02-21T01:55:11;14.32;;;7.45;;
25503;SDS011;13410;52.114;5.718;2024-02-21T01:57:39;16.17;;;7.88;;
25503;SDS011;13410;52.114;5.718;2024-02-21T02:00:06;16.63;;;8.32;;
25503;SDS011;13410;52.114;5.718;2024-02-21T02:02:32;13.57;;;7.85;;
25503;SDS011;13410;52.114;5.718;2024-02-21T02:04:58;18.63;;;8.07;;
25503;SDS011;13410;52.114;5.718;2024-02-21T02:07:25;14.70;;;8.15;;
25503;SDS011;13410;52.114;5.718;2024-02-21T02:09:51;14.82;;;7.93;;
25503;SDS011;13410;52.114;5.718;2024-02-21T02:12:16;19.58;;;8.50;;
25503;SDS011;13410;52.114;5.718;2024-02-21T02:14:42;18.65;;;8.35;;
25503;SDS011;13410;52.114;5.718;2024-02-21T02:17:07;19.63;;;8.02;;
25503;SDS011;13410;52.114;5.718;2024-02-21T02:19:34;16.63;;;8.43;;
25503;SDS011;13410;52.114;5.718;2024-02-21T02:22:11;18.58;;;8.27;;
25503;SDS011;13410;52.114;5.718;2024-02-21T02:24:43;21.45;;;7.78;;
25503;SDS011;13410;52.114;5.718;2024-02-21T02:27:09;20.92;;;8.75;;
25503;SDS011;13410;52.114;5.718;2024-02-21T02:29:35;17.77;;;8.20;;
25503;SDS011;13410;52.114;5.718;2024-02-21T02:32:00;14.90;;;7.93;;
25503;SDS011;13410;52.114;5.718;2024-02-21T02:34:26;15.93;;;8.20;;
25503;SDS011;13410;52.114;5.718;2024-02-21T02:36:51;17.38;;;7.22;;
25503;SDS011;13410;52.114;5.718;2024-02-21T02:39:17;18.15;;;8.05;;
25503;SDS011;13410;52.114;5.718;2024-02-21T02:41:42;14.40;;;7.78;;
25503;SDS011;13410;52.114;5.718;2024-02-21T02:44:08;20.10;;;8.13;;
25503;SDS011;13410;52.114;5.718;2024-02-21T02:46:33;18.40;;;8.80;;
25503;SDS011;13410;52.114;5.718;2024-02-21T02:48:59;21.08;;;8.00;;
25503;SDS011;13410;52.114;5.718;2024-02-21T02:51:25;21.30;;;8.52;;
25503;SDS011;13410;52.114;5.718;2024-02-21T02:53:50;16.42;;;8.05;;
25503;SDS011;13410;52.114;5.718;2024-02-21T02:56:16;18.80;;;8.13;;
25503;SDS011;13410;52.114;5.718;2024-02-21T02:58:44;19.92;;;7.60;;
25503;SDS011;13410;52.114;5.718;2024-02-21T03:01:10;14.43;;;7.20;;
25503;SDS011;13410;52.114;5.718;2024-02-21T03:03:36;16.35;;;7.63;;
25503;SDS011;13410;52.114;5.718;2024-02-21T03:06:01;15.70;;;7.68;;
25503;SDS011;13410;52.114;5.718;2024-02-21T03:08:27;21.65;;;8.00;;
25503;SDS011;13410;52.114;5.718;2024-02-21T03:10:52;15.68;;;7.40;;
25503;SDS011;13410;52.114;5.718;2024-02-21T03:13:18;12.48;;;6.95;;
25503;SDS011;13410;52.114;5.718;2024-02-21T03:15:44;20.45;;;8.05;;
25503;SDS011;13410;52.114;5.718;2024-02-21T03:18:09;19.55;;;7.47;;
25503;SDS011;13410;52.114;5.718;2024-02-21T03:20:35;16.83;;;7.88;;
25503;SDS011;13410;52.114;5.718;2024-02-21T03:23:00;19.90;;;7.88;;
25503;SDS011;13410;52.114;5.718;2024-02-21T03:25:26;19.50;;;7.40;;
25503;SDS011;13410;52.114;5.718;2024-02-21T03:27:52;18.88;;;7.60;;
25503;SDS011;13410;52.114;5.718;2024-02-21T03:30:17;15.32;;;7.22;;
25503;SDS011;13410;52.114;5.718;2024-02-21T03:32:43;17.65;;;7.93;;
25503;SDS011;13410;52.114;5.718;2024-02-21T03:35:08;14.90;;;7.75;;
25503;SDS011;13410;52.114;5.718;2024-02-21T03:37:35;18.42;;;7.65;;
25503;SDS011;13410;52.114;5.718;2024-02-21T03:40:00;16.60;;;7.22;;
25503;SDS011;13410;52.114;5.718;2024-02-21T03:42:27;20.60;;;8.27;;
25503;SDS011;13410;52.114;5.718;2024-02-21T03:44:54;16.38;;;8.18;;
25503;SDS011;13410;52.114;5.718;2024-02-21T03:47:20;17.67;;;8.02;;
25503;SDS011;13410;52.114;5.718;2024-02-21T03:49:46;15.15;;;7.90;;
25503;SDS011;13410;52.114;5.718;2024-02-21T03:52:12;20.85;;;8.48;;
25503;SDS011;13410;52.114;5.718;2024-02-21T03:54:37;14.45;;;7.95;;
25503;SDS011;13410;52.114;5.718;2024-02-21T03:57:04;18.33;;;8.57;;
25503;SDS011;13410;52.114;5.718;2024-02-21T03:59:30;16.33;;;7.57;;
25503;SDS011;13410;52.114;5.718;2024-02-21T04:01:56;18.50;;;8.07;;
25503;SDS011;13410;52.114;5.718;2024-02-21T04:04:21;14.52;;;7.70;;
25503;SDS011;13410;52.114;5.718;2024-02-21T04:06:47;21.05;;;8.20;;
25503;SDS011;13410;52.114;5.718;2024-02-21T04:09:14;19.75;;;7.40;;
25503;SDS011;13410;52.114;5.718;2024-02-21T04:11:39;19.30;;;8.15;;
25503;SDS011;13410;52.114;5.718;2024-02-21T04:14:05;17.95;;;8.10;;
25503;SDS011;13410;52.114;5.718;2024-02-21T04:16:30;17.52;;;7.72;;
25503;SDS011;13410;52.114;5.718;2024-02-21T04:18:56;17.70;;;7.60;;
25503;SDS011;13410;52.114;5.718;2024-02-21T04:21:22;13.25;;;6.80;;
25503;SDS011;13410;52.114;5.718;2024-02-21T04:23:47;15.02;;;7.63;;
25503;SDS011;13410;52.114;5.718;2024-02-21T04:26:13;18.45;;;7.45;;
25503;SDS011;13410;52.114;5.718;2024-02-21T04:28:39;16.63;;;7.32;;
25503;SDS011;13410;52.114;5.718;2024-02-21T04:31:04;23.83;;;8.77;;
25503;SDS011;13410;52.114;5.718;2024-02-21T04:33:30;15.57;;;6.90;;
25503;SDS011;13410;52.114;5.718;2024-02-21T04:35:55;17.45;;;7.50;;
25503;SDS011;13410;52.114;5.718;2024-02-21T04:38:23;17.67;;;7.00;;
25503;SDS011;13410;52.114;5.718;2024-02-21T04:40:49;13.10;;;7.00;;
25503;SDS011;13410;52.114;5.718;2024-02-21T04:43:14;17.45;;;7.40;;
25503;SDS011;13410;52.114;5.718;2024-02-21T04:45:40;14.75;;;7.05;;
25503;SDS011;13410;52.114;5.718;2024-02-21T04:48:05;14.20;;;7.28;;
25503;SDS011;13410;52.114;5.718;2024-02-21T04:50:31;16.63;;;7.10;;
25503;SDS011;13410;52.114;5.718;2024-02-21T04:52:57;15.60;;;7.10;;
25503;SDS011;13410;52.114;5.718;2024-02-21T04:55:22;17.00;;;7.15;;
25503;SDS011;13410;52.114;5.718;2024-02-21T04:57:48;19.40;;;7.45;;
25503;SDS011;13410;52.114;5.718;2024-02-21T05:00:13;16.38;;;7.10;;
25503;SDS011;13410;52.114;5.718;2024-02-21T05:02:39;18.95;;;7.97;;
25503;SDS011;13410;52.114;5.718;2024-02-21T05:05:05;18.60;;;9.80;;
25503;SDS011;13410;52.114;5.718;2024-02-21T05:07:31;19.50;;;7.97;;
25503;SDS011;13410;52.114;5.718;2024-02-21T05:09:57;17.40;;;8.70;;
25503;SDS011;13410;52.114;5.718;2024-02-21T05:12:22;19.63;;;8.90;;
25503;SDS011;13410;52.114;5.718;2024-02-21T05:14:48;16.02;;;9.18;;
25503;SDS011;13410;52.114;5.718;2024-02-21T05:17:14;20.15;;;8.98;;
25503;SDS011;13410;52.114;5.718;2024-02-21T05:19:40;16.67;;;8.55;;
25503;SDS011;13410;52.114;5.718;2024-02-21T05:22:05;18.92;;;9.15;;
25503;SDS011;13410;52.114;5.718;2024-02-21T05:24:31;20.55;;;9.70;;
25503;SDS011;13410;52.114;5.718;2024-02-21T05:26:57;17.10;;;9.18;;
25503;SDS011;13410;52.114;5.718;2024-02-21T05:29:22;20.08;;;9.63;;
25503;SDS011;13410;52.114;5.718;2024-02-21T05:34:16;17.70;;;9.27;;
25503;SDS011;13410;52.114;5.718;2024-02-21T05:36:42;17.77;;;9.52;;
25503;SDS011;13410;52.114;5.718;2024-02-21T05:39:08;19.65;;;9.60;;
25503;SDS011;13410;52.114;5.718;2024-02-21T05:41:33;19.48;;;10.10;;
25503;SDS011;13410;52.114;5.718;2024-02-21T05:43:59;20.83;;;9.27;;
25503;SDS011;13410;52.114;5.718;2024-02-21T05:46:24;21.30;;;10.02;;
25503;SDS011;13410;52.114;5.718;2024-02-21T05:48:50;19.70;;;10.07;;
25503;SDS011;13410;52.114;5.718;2024-02-21T05:51:16;20.95;;;10.25;;
25503;SDS011;13410;52.114;5.718;2024-02-21T05:53:41;15.93;;;9.63;;
25503;SDS011;13410;52.114;5.718;2024-02-21T05:56:10;18.63;;;9.88;;
25503;SDS011;13410;52.114;5.718;2024-02-21T05:58:37;18.45;;;9.52;;
25503;SDS011;13410;52.114;5.718;2024-02-21T06:01:02;16.77;;;9.85;;
25503;SDS011;13410;52.114;5.718;2024-02-21T06:03:28;18.38;;;9.45;;
25503;SDS011;13410;52.114;5.718;2024-02-21T06:05:54;16.02;;;10.48;;
25503;SDS011;13410;52.114;5.718;2024-02-21T06:08:20;22.05;;;10.52;;
25503;SDS011;13410;52.114;5.718;2024-02-21T06:10:46;21.85;;;10.63;;
25503;SDS011;13410;52.114;5.718;2024-02-21T06:13:13;21.35;;;10.90;;
25503;SDS011;13410;52.114;5.718;2024-02-21T06:15:39;24.52;;;12.13;;
25503;SDS011;13410;52.114;5.718;2024-02-21T06:18:04;21.92;;;12.23;;
25503;SDS011;13410;52.114;5.718;2024-02-21T06:20:30;25.02;;;11.90;;
25503;SDS011;13410;52.114;5.718;2024-02-21T06:22:56;25.13;;;12.38;;
25503;SDS011;13410;52.114;5.718;2024-02-21T06:25:21;21.55;;;12.35;;
25503;SDS011;13410;52.114;5.718;2024-02-21T06:27:47;22.17;;;13.23;;
25503;SDS011;13410;52.114;5.718;2024-02-21T06:30:13;23.92;;;12.15;;
25503;SDS011;13410;52.114;5.718;2024-02-21T06:32:38;27.17;;;13.50;;
25503;SDS011;13410;52.114;5.718;2024-02-21T06:35:04;29.30;;;14.68;;
25503;SDS011;13410;52.114;5.718;2024-02-21T06:37:30;25.67;;;14.43;;
25503;SDS011;13410;52.114;5.718;2024-02-21T06:39:57;27.88;;;14.50;;
25503;SDS011;13410;52.114;5.718;2024-02-21T06:42:24;27.73;;;13.80;;
25503;SDS011;13410;52.114;5.718;2024-02-21T06:44:50;31.77;;;17.10;;
25503;SDS011;13410;52.114;5.718;2024-02-21T06:47:16;26.75;;;14.43;;
25503;SDS011;13410;52.114;5.718;2024-02-21T06:49:42;30.08;;;13.95;;
25503;SDS011;13410;52.114;5.718;2024-02-21T06:52:07;30.02;;;15.88;;
25503;SDS011;13410;52.114;5.718;2024-02-21T06:54:33;37.40;;;19.08;;
25503;SDS011;13410;52.114;5.718;2024-02-21T06:56:58;41.22;;;22.52;;
25503;SDS011;13410;52.114;5.718;2024-02-21T06:59:24;32.60;;;16.88;;
25503;SDS011;13410;52.114;5.718;2024-02-21T07:01:53;36.75;;;18.30;;
25503;SDS011;13410;52.114;5.718;2024-02-21T07:04:20;29.60;;;15.45;;
25503;SDS011;13410;52.114;5.718;2024-02-21T07:06:46;36.35;;;19.27;;
25503;SDS011;13410;52.114;5.718;2024-02-21T07:09:11;25.80;;;12.48;;
25503;SDS011;13410;52.114;5.718;2024-02-21T07:11:37;33.05;;;20.80;;
25503;SDS011;13410;52.114;5.718;2024-02-21T07:14:03;23.40;;;14.98;;
25503;SDS011;13410;52.114;5.718;2024-02-21T07:16:28;26.58;;;12.82;;
25503;SDS011;13410;52.114;5.718;2024-02-21T07:18:55;29.80;;;15.07;;
25503;SDS011;13410;52.114;5.718;2024-02-21T07:21:20;23.88;;;13.52;;
25503;SDS011;13410;52.114;5.718;2024-02-21T07:23:46;26.92;;;13.50;;
25503;SDS011;13410;52.114;5.718;2024-02-21T07:26:11;23.90;;;11.68;;
25503;SDS011;13410;52.114;5.718;2024-02-21T07:28:37;24.75;;;12.02;;
25503;SDS011;13410;52.114;5.718;2024-02-21T07:31:03;21.73;;;11.73;;
25503;SDS011;13410;52.114;5.718;2024-02-21T07:33:28;27.15;;;14.52;;
25503;SDS011;13410;52.114;5.718;2024-02-21T07:35:55;21.00;;;11.05;;
25503;SDS011;13410;52.114;5.718;2024-02-21T07:38:21;22.42;;;10.25;;
25503;SDS011;13410;52.114;5.718;2024-02-21T07:40:47;19.33;;;10.05;;
25503;SDS011;13410;52.114;5.718;2024-02-21T07:43:13;21.92;;;10.25;;
25503;SDS011;13410;52.114;5.718;2024-02-21T07:45:38;19.73;;;10.32;;
25503;SDS011;13410;52.114;5.718;2024-02-21T07:48:05;21.65;;;9.93;;
25503;SDS011;13410;52.114;5.718;2024-02-21T07:50:31;19.35;;;10.18;;
25503;SDS011;13410;52.114;5.718;2024-02-21T07:52:56;16.65;;;9.25;;
25503;SDS011;13410;52.114;5.718;2024-02-21T07:55:22;22.77;;;10.10;;
25503;SDS011;13410;52.114;5.718;2024-02-21T07:57:48;16.75;;;9.48;;
25503;SDS011;13410;52.114;5.718;2024-02-21T08:00:14;19.17;;;8.88;;
25503;SDS011;13410;52.114;5.718;2024-02-21T08:02:45;17.60;;;9.30;;
25503;SDS011;13410;52.114;5.718;2024-02-21T08:05:11;21.73;;;9.30;;
25503;SDS011;13410;52.114;5.718;2024-02-21T08:07:37;20.80;;;9.00;;
25503;SDS011;13410;52.114;5.718;2024-02-21T08:10:03;21.42;;;9.48;;
25503;SDS011;13410;52.114;5.718;2024-02-21T08:12:29;17.88;;;8.80;;
25503;SDS011;13410;52.114;5.718;2024-02-21T08:14:55;18.73;;;8.90;;
25503;SDS011;13410;52.114;5.718;2024-02-21T08:17:20;18.65;;;8.95;;
25503;SDS011;13410;52.114;5.718;2024-02-21T08:19:46;18.30;;;9.48;;
25503;SDS011;13410;52.114;5.718;2024-02-21T08:22:14;18.38;;;9.15;;
25503;SDS011;13410;52.114;5.718;2024-02-21T08:24:39;21.00;;;9.75;;
25503;SDS011;13410;52.114;5.718;2024-02-21T08:27:05;18.42;;;9.90;;
25503;SDS011;13410;52.114;5.718;2024-02-21T08:29:31;22.40;;;10.10;;
25503;SDS011;13410;52.114;5.718;2024-02-21T08:31:56;20.45;;;9.35;;
25503;SDS011;13410;52.114;5.718;2024-02-21T08:34:22;18.15;;;9.02;;
25503;SDS011;13410;52.114;5.718;2024-02-21T08:36:47;16.83;;;9.13;;
25503;SDS011;13410;52.114;5.718;2024-02-21T08:39:13;18.58;;;8.60;;
25503;SDS011;13410;52.114;5.718;2024-02-21T08:41:42;21.10;;;9.43;;
25503;SDS011;13410;52.114;5.718;2024-02-21T08:44:08;21.20;;;9.27;;
25503;SDS011;13410;52.114;5.718;2024-02-21T08:46:33;16.73;;;9.00;;
25503;SDS011;13410;52.114;5.718;2024-02-21T08:48:59;19.00;;;8.95;;
25503;SDS011;13410;52.114;5.718;2024-02-21T08:51:24;16.50;;;9.30;;
25503;SDS011;13410;52.114;5.718;2024-02-21T08:53:51;16.55;;;8.60;;
25503;SDS011;13410;52.114;5.718;2024-02-21T08:56:18;20.27;;;8.88;;
25503;SDS011;13410;52.114;5.718;2024-02-21T08:58:44;15.02;;;8.20;;
25503;SDS011;13410;52.114;5.718;2024-02-21T09:01:09;15.55;;;8.55;;
25503;SDS011;13410;52.114;5.718;2024-02-21T09:03:38;15.45;;;8.68;;
25503;SDS011;13410;52.114;5.718;2024-02-21T09:06:05;15.48;;;8.20;;
25503;SDS011;13410;52.114;5.718;2024-02-21T09:08:31;15.35;;;8.35;;
25503;SDS011;13410;52.114;5.718;2024-02-21T09:10:57;16.45;;;8.25;;
25503;SDS011;13410;52.114;5.718;2024-02-21T09:13:22;15.88;;;8.45;;
25503;SDS011;13410;52.114;5.718;2024-02-21T09:15:49;19.50;;;8.07;;
25503;SDS011;13410;52.114;5.718;2024-02-21T09:18:15;20.10;;;8.50;;
25503;SDS011;13410;52.114;5.718;2024-02-21T09:20:41;17.65;;;8.00;;
25503;SDS011;13410;52.114;5.718;2024-02-21T09:23:07;14.77;;;7.78;;
25503;SDS011;13410;52.114;5.718;2024-02-21T09:25:32;14.60;;;8.15;;
25503;SDS011;13410;52.114;5.718;2024-02-21T09:27:58;19.05;;;8.45;;
25503;SDS011;13410;52.114;5.718;2024-02-21T09:30:24;14.55;;;7.20;;
25503;SDS011;13410;52.114;5.718;2024-02-21T09:32:50;18.33;;;7.72;;
25503;SDS011;13410;52.114;5.718;2024-02-21T09:35:15;14.27;;;7.20;;
25503;SDS011;13410;52.114;5.718;2024-02-21T09:37:41;13.60;;;7.30;;
25503;SDS011;13410;52.114;5.718;2024-02-21T09:40:07;12.52;;;7.22;;
25503;SDS011;13410;52.114;5.718;2024-02-21T09:42:40;16.35;;;7.50;;
25503;SDS011;13410;52.114;5.718;2024-02-21T09:50:33;16.00;;;7.72;;
25503;SDS011;13410;52.114;5.718;2024-02-21T09:53:01;13.00;;;7.43;;
25503;SDS011;13410;52.114;5.718;2024-02-21T09:55:27;12.10;;;7.38;;
25503;SDS011;13410;52.114;5.718;2024-02-21T09:57:57;15.52;;;9.00;;
25503;SDS011;13410;52.114;5.718;2024-02-21T10:00:24;12.23;;;6.95;;
25503;SDS011;13410;52.114;5.718;2024-02-21T10:02:49;12.13;;;7.45;;
25503;SDS011;13410;52.114;5.718;2024-02-21T10:05:15;13.70;;;8.60;;
25503;SDS011;13410;52.114;5.718;2024-02-21T10:07:42;11.48;;;6.82;;
25503;SDS011;13410;52.114;5.718;2024-02-21T10:10:08;12.80;;;7.00;;
25503;SDS011;13410;52.114;5.718;2024-02-21T10:12:35;13.85;;;6.90;;
25503;SDS011;13410;52.114;5.718;2024-02-21T10:15:01;13.77;;;8.43;;
25503;SDS011;13410;52.114;5.718;2024-02-21T10:17:28;16.58;;;10.70;;
25503;SDS011;13410;52.114;5.718;2024-02-21T10:19:54;11.27;;;6.85;;
25503;SDS011;13410;52.114;5.718;2024-02-21T10:22:20;11.88;;;6.97;;
25503;SDS011;13410;52.114;5.718;2024-02-21T10:24:46;13.13;;;6.85;;
25503;SDS011;13410;52.114;5.718;2024-02-21T10:27:12;11.93;;;6.65;;
25503;SDS011;13410;52.114;5.718;2024-02-21T10:29:37;11.07;;;6.47;;
25503;SDS011;13410;52.114;5.718;2024-02-21T10:32:04;12.20;;;6.55;;
25503;SDS011;13410;52.114;5.718;2024-02-21T10:34:34;12.70;;;6.43;;
25503;SDS011;13410;52.114;5.718;2024-02-21T10:37:10;11.18;;;6.32;;
25503;SDS011;13410;52.114;5.718;2024-02-21T10:39:37;10.00;;;5.93;;
25503;SDS011;13410;52.114;5.718;2024-02-21T10:42:04;10.52;;;5.80;;
25503;SDS011;13410;52.114;5.718;2024-02-21T10:44:30;7.72;;;5.55;;
25503;SDS011;13410;52.114;5.718;2024-02-21T10:46:57;8.57;;;5.47;;
25503;SDS011;13410;52.114;5.718;2024-02-21T10:49:24;8.45;;;5.30;;
25503;SDS011;13410;52.114;5.718;2024-02-21T10:51:54;11.05;;;5.53;;
25503;SDS011;13410;52.114;5.718;2024-02-21T10:54:32;8.43;;;5.18;;
25503;SDS011;13410;52.114;5.718;2024-02-21T10:57:15;8.80;;;4.90;;
25503;SDS011;13410;52.114;5.718;2024-02-21T10:59:41;8.52;;;5.43;;
25503;SDS011;13410;52.114;5.718;2024-02-21T11:02:10;9.15;;;5.45;;
25503;SDS011;13410;52.114;5.718;2024-02-21T11:04:35;7.75;;;5.32;;
25503;SDS011;13410;52.114;5.718;2024-02-21T11:07:03;6.68;;;5.38;;
25503;SDS011;13410;52.114;5.718;2024-02-21T11:09:30;9.43;;;5.28;;
25503;SDS011;13410;52.114;5.718;2024-02-21T11:11:58;8.40;;;5.07;;
25503;SDS011;13410;52.114;5.718;2024-02-21T11:14:29;7.15;;;5.50;;
25503;SDS011;13410;52.114;5.718;2024-02-21T11:17:00;17.25;;;11.95;;
25503;SDS011;13410;52.114;5.718;2024-02-21T11:19:27;30.35;;;16.63;;
25503;SDS011;13410;52.114;5.718;2024-02-21T11:21:54;19.67;;;10.40;;
25503;SDS011;13410;52.114;5.718;2024-02-21T11:24:25;14.70;;;8.95;;
25503;SDS011;13410;52.114;5.718;2024-02-21T11:26:54;12.65;;;7.80;;
25503;SDS011;13410;52.114;5.718;2024-02-21T11:29:24;11.82;;;6.35;;
25503;SDS011;13410;52.114;5.718;2024-02-21T11:31:52;14.50;;;9.27;;
25503;SDS011;13410;52.114;5.718;2024-02-21T11:34:18;27.23;;;12.27;;
25503;SDS011;13410;52.114;5.718;2024-02-21T11:36:51;12.73;;;7.75;;
25503;SDS011;13410;52.114;5.718;2024-02-21T11:39:24;19.45;;;10.60;;
25503;SDS011;13410;52.114;5.718;2024-02-21T11:42:00;19.67;;;13.02;;
25503;SDS011;13410;52.114;5.718;2024-02-21T11:44:31;13.70;;;9.40;;
25503;SDS011;13410;52.114;5.718;2024-02-21T11:46:57;14.65;;;8.65;;
25503;SDS011;13410;52.114;5.718;2024-02-21T11:49:24;11.80;;;7.75;;
25503;SDS011;13410;52.114;5.718;2024-02-21T11:52:03;12.38;;;7.50;;
25503;SDS011;13410;52.114;5.718;2024-02-21T11:54:32;12.55;;;7.78;;
25503;SDS011;13410;52.114;5.718;2024-02-21T11:56:59;13.80;;;8.93;;
25503;SDS011;13410;52.114;5.718;2024-02-21T11:59:25;12.80;;;8.00;;
25503;SDS011;13410;52.114;5.718;2024-02-21T12:01:52;11.95;;;7.72;;
25503;SDS011;13410;52.114;5.718;2024-02-21T12:04:18;12.32;;;8.55;;
25503;SDS011;13410;52.114;5.718;2024-02-21T12:06:45;14.25;;;7.65;;
25503;SDS011;13410;52.114;5.718;2024-02-21T12:09:14;15.20;;;8.52;;
25503;SDS011;13410;52.114;5.718;2024-02-21T12:11:43;14.15;;;7.95;;
25503;SDS011;13410;52.114;5.718;2024-02-21T12:14:09;12.50;;;7.32;;
25503;SDS011;13410;52.114;5.718;2024-02-21T12:16:36;10.95;;;6.80;;
25503;SDS011;13410;52.114;5.718;2024-02-21T12:19:04;12.27;;;6.47;;
25503;SDS011;13410;52.114;5.718;2024-02-21T12:21:30;11.30;;;6.72;;
25503;SDS011;13410;52.114;5.718;2024-02-21T12:23:57;11.55;;;6.03;;
25503;SDS011;13410;52.114;5.718;2024-02-21T12:26:23;13.50;;;7.25;;
25503;SDS011;13410;52.114;5.718;2024-02-21T12:28:49;11.40;;;7.65;;
25503;SDS011;13410;52.114;5.718;2024-02-21T12:31:15;13.02;;;7.07;;
25503;SDS011;13410;52.114;5.718;2024-02-21T12:33:41;11.23;;;7.10;;
25503;SDS011;13410;52.114;5.718;2024-02-21T12:36:07;8.63;;;5.40;;
25503;SDS011;13410;52.114;5.718;2024-02-21T12:38:34;10.63;;;5.70;;
25503;SDS011;13410;52.114;5.718;2024-02-21T12:41:02;11.23;;;6.03;;
25503;SDS011;13410;52.114;5.718;2024-02-21T12:43:28;10.30;;;5.72;;
25503;SDS011;13410;52.114;5.718;2024-02-21T12:45:54;9.90;;;5.70;;
25503;SDS011;13410;52.114;5.718;2024-02-21T12:48:19;12.05;;;6.80;;
25503;SDS011;13410;52.114;5.718;2024-02-21T12:50:49;10.80;;;6.10;;
25503;SDS011;13410;52.114;5.718;2024-02-21T12:53:16;12.10;;;5.60;;
25503;SDS011;13410;52.114;5.718;2024-02-21T12:55:49;9.73;;;5.60;;
25503;SDS011;13410;52.114;5.718;2024-02-21T12:58:15;13.15;;;6.28;;
25503;SDS011;13410;52.114;5.718;2024-02-21T13:00:41;10.35;;;6.07;;
25503;SDS011;13410;52.114;5.718;2024-02-21T13:03:07;12.77;;;5.93;;
25503;SDS011;13410;52.114;5.718;2024-02-21T13:05:35;11.55;;;6.47;;
25503;SDS011;13410;52.114;5.718;2024-02-21T13:08:04;15.50;;;6.60;;
25503;SDS011;13410;52.114;5.718;2024-02-21T13:10:34;12.10;;;5.82;;
25503;SDS011;13410;52.114;5.718;2024-02-21T13:13:00;10.95;;;5.45;;
25503;SDS011;13410;52.114;5.718;2024-02-21T13:15:26;9.23;;;5.45;;
25503;SDS011;13410;52.114;5.718;2024-02-21T13:17:53;9.80;;;5.05;;
25503;SDS011;13410;52.114;5.718;2024-02-21T13:20:19;14.68;;;5.82;;
25503;SDS011;13410;52.114;5.718;2024-02-21T13:22:45;8.77;;;5.18;;
25503;SDS011;13410;52.114;5.718;2024-02-21T13:25:11;9.05;;;5.10;;
25503;SDS011;13410;52.114;5.718;2024-02-21T13:27:40;10.27;;;4.85;;
25503;SDS011;13410;52.114;5.718;2024-02-21T13:30:06;8.65;;;4.80;;
25503;SDS011;13410;52.114;5.718;2024-02-21T13:32:34;8.75;;;5.03;;
25503;SDS011;13410;52.114;5.718;2024-02-21T13:34:59;10.10;;;5.03;;
25503;SDS011;13410;52.114;5.718;2024-02-21T13:37:26;7.63;;;4.68;;
25503;SDS011;13410;52.114;5.718;2024-02-21T13:39:52;9.52;;;4.93;;
25503;SDS011;13410;52.114;5.718;2024-02-21T13:42:18;11.55;;;5.07;;
25503;SDS011;13410;52.114;5.718;2024-02-21T13:44:44;9.80;;;5.20;;
25503;SDS011;13410;52.114;5.718;2024-02-21T13:47:11;9.65;;;5.18;;
25503;SDS011;13410;52.114;5.718;2024-02-21T13:49:38;10.52;;;5.10;;
25503;SDS011;13410;52.114;5.718;2024-02-21T13:52:04;9.40;;;4.85;;
25503;SDS011;13410;52.114;5.718;2024-02-21T13:54:30;10.95;;;5.43;;
25503;SDS011;13410;52.114;5.718;2024-02-21T13:56:55;11.63;;;5.70;;
25503;SDS011;13410;52.114;5.718;2024-02-21T13:59:21;10.00;;;5.30;;
25503;SDS011;13410;52.114;5.718;2024-02-21T14:01:46;9.32;;;4.90;;
25503;SDS011;13410;52.114;5.718;2024-02-21T14:04:12;15.20;;;7.72;;
25503;SDS011;13410;52.114;5.718;2024-02-21T14:06:38;17.23;;;9.23;;
25503;SDS011;13410;52.114;5.718;2024-02-21T14:09:14;11.30;;;6.93;;
25503;SDS011;13410;52.114;5.718;2024-02-21T14:11:40;15.18;;;8.55;;
25503;SDS011;13410;52.114;5.718;2024-02-21T14:14:07;15.70;;;6.47;;
25503;SDS011;13410;52.114;5.718;2024-02-21T14:16:32;11.63;;;5.25;;
25503;SDS011;13410;52.114;5.718;2024-02-21T14:18:58;9.15;;;5.60;;
25503;SDS011;13410;52.114;5.718;2024-02-21T14:21:24;17.25;;;8.18;;
25503;SDS011;13410;52.114;5.718;2024-02-21T14:23:50;9.20;;;5.18;;
25503;SDS011;13410;52.114;5.718;2024-02-21T14:26:17;15.93;;;6.55;;
25503;SDS011;13410;52.114;5.718;2024-02-21T14:28:43;10.93;;;6.40;;
25503;SDS011;13410;52.114;5.718;2024-02-21T14:31:08;15.07;;;7.22;;
25503;SDS011;13410;52.114;5.718;2024-02-21T14:33:35;10.80;;;4.93;;
25503;SDS011;13410;52.114;5.718;2024-02-21T14:36:01;12.50;;;5.50;;